Time;durP1;ratioP1;P1;durP2;ratioP2;P2;SDS_P1;SDS_P2;PMS_P1;PMS_P2;Temp;Humidity;BMP_temperature;BMP_pressure;BME280_temperature;BME280_humidity;BME280_pressure;Samples;Min_cycle;Max_cycle;Signal;HPM_P1;HPM_P2
2021/12/13 00:02:05;;;;;;;31.77;16.48;;;;;;;;;;4842629;29;20030;-81
2021/12/13 00:04:39;;;;;;;29.20;14.57;;;;;;;;;;4861170;29;20461;-80
2021/12/13 00:07:25;;;;;;;24.63;12.23;;;;;;;;;;4843039;29;20033;-81
2021/12/13 00:09:53;;;;;;;18.45;11.68;;;;;;;;;;4854454;29;20026;-81
2021/12/13 00:12:25;;;;;;;20.02;11.40;;;;;;;;;;4860873;29;20025;-80
2021/12/13 00:14:51;;;;;;;;;;;;;;;;;;4861470;29;20030;-81
2021/12/13 00:17:28;;;;;;;24.23;11.32;;;;;;;;;;4860939;29;19908;-81
2021/12/13 00:19:59;;;;;;;31.70;11.63;;;;;;;;;;4860184;29;20623;-81
2021/12/13 00:22:32;;;;;;;28.75;10.70;;;;;;;;;;4850025;29;20044;-80
2021/12/13 00:25:03;;;;;;;24.73;10.45;;;;;;;;;;4845952;29;20029;-81
2021/12/13 00:27:29;;;;;;;33.78;11.10;;;;;;;;;;4860756;29;20033;-81
2021/12/13 00:30:14;;;;;;;39.70;11.07;;;;;;;;;;4844089;29;20494;-80
2021/12/13 00:32:43;;;;;;;40.10;11.75;;;;;;;;;;4842962;29;20065;-80
2021/12/13 00:35:12;;;;;;;41.80;11.98;;;;;;;;;;4860896;29;20032;-80
2021/12/13 00:37:41;;;;;;;52.42;11.07;;;;;;;;;;4860511;29;20025;-81
2021/12/13 00:40:15;;;;;;;39.60;11.18;;;;;;;;;;4860459;29;20578;-80
2021/12/13 00:42:44;;;;;;;24.10;10.23;;;;;;;;;;4860179;29;20066;-80
2021/12/13 00:45:13;;;;;;;21.30;10.75;;;;;;;;;;4860594;29;20033;-80
2021/12/13 00:47:41;;;;;;;16.92;9.45;;;;;;;;;;4860574;29;20029;-81
2021/12/13 00:50:31;;;;;;;21.63;10.43;;;;;;;;;;4858014;29;20025;-80
2021/12/13 00:52:59;;;;;;;18.15;10.40;;;;;;;;;;4849884;29;20170;-81
2021/12/13 00:55:26;;;;;;;18.35;9.90;;;;;;;;;;4843071;29;20033;-80
2021/12/13 00:58:11;;;;;;;18.63;10.30;;;;;;;;;;4857864;29;20040;-81
2021/12/13 01:00:58;;;;;;;17.73;10.57;;;;;;;;;;4847444;29;20042;-81
2021/12/13 01:03:24;;;;;;;16.33;9.32;;;;;;;;;;4860201;29;20030;-81
2021/12/13 01:06:11;;;;;;;16.38;9.73;;;;;;;;;;4859825;29;20030;-81
2021/12/13 01:08:37;;;;;;;15.45;9.13;;;;;;;;;;4860368;29;20112;-81
2021/12/13 01:11:17;;;;;;;13.20;8.15;;;;;;;;;;4860017;29;20770;-81
2021/12/13 01:14:01;;;;;;;12.60;8.43;;;;;;;;;;4843868;29;20037;-80
2021/12/13 01:19:29;;;;;;;16.40;10.40;;;;;;;;;;4800023;29;20062;-80
2021/12/13 01:22:23;;;;;;;15.43;9.65;;;;;;;;;;4802945;29;20070;-81
2021/12/13 01:27:16;;;;;;;15.73;9.38;;;;;;;;;;4791541;29;20042;-81
2021/12/13 01:29:50;;;;;;;13.35;8.98;;;;;;;;;;4785480;30;20118;-81
2021/12/13 01:32:18;;;;;;;20.15;9.52;;;;;;;;;;4793517;29;20031;-80
2021/12/13 01:34:46;;;;;;;13.98;8.60;;;;;;;;;;4788159;29;20436;-80
2021/12/13 01:37:15;;;;;;;12.88;8.70;;;;;;;;;;4784757;29;20431;-80
2021/12/13 01:39:44;;;;;;;13.27;8.65;;;;;;;;;;4785093;30;20043;-81
2021/12/13 01:42:12;;;;;;;14.82;8.52;;;;;;;;;;4785279;30;20115;-80
2021/12/13 01:44:42;;;;;;;13.15;8.32;;;;;;;;;;4785488;30;20118;-80
2021/12/13 01:47:10;;;;;;;16.15;8.85;;;;;;;;;;4799686;29;20564;-81
2021/12/13 01:49:39;;;;;;;13.25;7.50;;;;;;;;;;4802887;29;20047;-80
2021/12/13 01:52:17;;;;;;;14.65;8.35;;;;;;;;;;4787957;29;20062;-81
2021/12/13 01:54:43;;;;;;;12.10;8.27;;;;;;;;;;4825107;29;20045;-80
2021/12/13 02:00:32;;;;;;;12.60;7.67;;;;;;;;;;4859398;29;20078;-80
2021/12/13 02:02:31;;;;;;;16.38;7.78;;;;;;;;;;4841251;29;20044;-81
2021/12/13 02:05:00;;;;;;;16.63;9.02;;;;;;;;;;4859947;29;20029;-81
2021/12/13 02:07:28;;;;;;;16.50;9.13;;;;;;;;;;4859768;29;20029;-81
2021/12/13 02:09:56;;;;;;;25.75;13.88;;;;;;;;;;4843032;29;20065;-81
2021/12/13 02:12:27;;;;;;;111.38;19.08;;;;;;;;;;4844346;29;20026;-81
2021/12/13 02:17:40;;;;;;;187.50;26.00;;;;;;;;;;4862870;29;20089;-80
2021/12/13 02:20:12;;;;;;;258.98;27.38;;;;;;;;;;4846524;29;20443;-81
2021/12/13 02:22:38;;;;;;;172.10;25.27;;;;;;;;;;4847295;29;20038;-80
2021/12/13 02:25:04;;;;;;;175.95;23.80;;;;;;;;;;4844682;29;20033;-80
2021/12/13 02:27:33;;;;;;;191.50;22.77;;;;;;;;;;4844290;29;20038;-80
2021/12/13 02:30:01;;;;;;;130.85;21.90;;;;;;;;;;4844524;29;20029;-80
2021/12/13 02:32:28;;;;;;;160.30;19.83;;;;;;;;;;4844275;29;20548;-80
2021/12/13 02:34:57;;;;;;;212.65;19.08;;;;;;;;;;4847013;29;20029;-80
2021/12/13 02:37:24;;;;;;;164.65;18.48;;;;;;;;;;4861882;29;20037;-80
2021/12/13 02:39:56;;;;;;;147.77;19.17;;;;;;;;;;4862061;29;20034;-80
2021/12/13 02:42:22;;;;;;;108.03;18.88;;;;;;;;;;4862794;29;20034;-81
2021/12/13 02:44:50;;;;;;;127.95;17.65;;;;;;;;;;4862905;29;20423;-81
2021/12/13 02:47:29;;;;;;;67.43;18.17;;;;;;;;;;4862381;29;20089;-80
2021/12/13 02:49:55;;;;;;;72.22;20.70;;;;;;;;;;4862770;29;20508;-80
2021/12/13 02:52:22;;;;;;;69.93;18.48;;;;;;;;;;4841069;29;20038;-80
2021/12/13 02:54:54;;;;;;;97.80;18.88;;;;;;;;;;4851959;29;20025;-81
2021/12/13 02:57:24;;;;;;;76.55;18.75;;;;;;;;;;4862286;29;20030;-80
2021/12/13 02:59:53;;;;;;;95.43;17.13;;;;;;;;;;4844580;29;20435;-80
2021/12/13 03:02:32;;;;;;;65.80;15.23;;;;;;;;;;4843825;29;20058;-80
2021/12/13 03:04:59;;;;;;;67.60;14.35;;;;;;;;;;4854949;29;20469;-80
2021/12/13 03:07:27;;;;;;;78.38;14.80;;;;;;;;;;4861206;29;20040;-80
2021/12/13 03:09:55;;;;;;;85.45;14.32;;;;;;;;;;4862292;29;20066;-81
2021/12/13 03:12:22;;;;;;;89.88;14.60;;;;;;;;;;4862003;29;20034;-80
2021/12/13 03:14:56;;;;;;;67.35;11.77;;;;;;;;;;4862250;29;20376;-81
2021/12/13 03:17:26;;;;;;;48.55;11.35;;;;;;;;;;4862175;29;20188;-80
2021/12/13 03:19:58;;;;;;;32.25;10.80;;;;;;;;;;4862186;29;20490;-81
2021/12/13 03:22:37;;;;;;;19.85;10.70;;;;;;;;;;4860555;29;20025;-80
2021/12/13 03:25:22;;;;;;;18.15;10.10;;;;;;;;;;4860186;29;20030;-80
2021/12/13 03:27:49;;;;;;;32.20;8.30;;;;;;;;;;4843762;29;20491;-81
2021/12/13 03:30:20;;;;;;;21.45;7.97;;;;;;;;;;4843496;29;20074;-80
2021/12/13 03:32:52;;;;;;;19.03;8.53;;;;;;;;;;4854699;29;20064;-80
2021/12/13 03:35:22;;;;;;;18.42;8.90;;;;;;;;;;4861074;29;20631;-80
2021/12/13 03:37:54;;;;;;;23.80;8.20;;;;;;;;;;4841959;29;20395;-81
2021/12/13 03:40:21;;;;;;;40.88;7.72;;;;;;;;;;4843319;29;20026;-81
2021/12/13 03:42:50;;;;;;;50.85;7.93;;;;;;;;;;4843220;29;20029;-81
2021/12/13 03:45:37;;;;;;;12.88;7.80;;;;;;;;;;4843315;29;20052;-80
2021/12/13 03:48:05;;;;;;;27.63;7.13;;;;;;;;;;4843102;29;20039;-81
2021/12/13 03:50:33;;;;;;;16.80;6.43;;;;;;;;;;4845071;29;20060;-80
2021/12/13 03:53:02;;;;;;;15.85;6.05;;;;;;;;;;4861523;29;20033;-81
2021/12/13 03:55:30;;;;;;;13.13;4.75;;;;;;;;;;4861301;29;20554;-81
2021/12/13 03:58:00;;;;;;;11.38;5.70;;;;;;;;;;4858775;29;20493;-81
2021/12/13 04:00:28;;;;;;;11.20;5.40;;;;;;;;;;4842590;29;20137;-81
2021/12/13 04:02:56;;;;;;;23.75;5.65;;;;;;;;;;4854721;29;20120;-81
2021/12/13 04:05:23;;;;;;;17.60;6.50;;;;;;;;;;4828911;29;20038;-80
2021/12/13 04:07:54;;;;;;;28.50;6.85;;;;;;;;;;4860742;29;20029;-81
2021/12/13 04:10:22;;;;;;;18.47;6.10;;;;;;;;;;4860864;29;20034;-80
2021/12/13 04:12:51;;;;;;;16.67;5.47;;;;;;;;;;4844302;29;20642;-81
2021/12/13 04:15:19;;;;;;;26.70;6.72;;;;;;;;;;4861236;29;20021;-80
2021/12/13 04:17:58;;;;;;;20.77;5.90;;;;;;;;;;4861105;29;20037;-80
2021/12/13 04:20:29;;;;;;;36.97;6.70;;;;;;;;;;4860754;29;20074;-81
2021/12/13 04:22:57;;;;;;;16.55;6.35;;;;;;;;;;4859843;29;20490;-80
2021/12/13 04:25:25;;;;;;;30.23;6.78;;;;;;;;;;4860981;29;20040;-80
2021/12/13 04:27:56;;;;;;;28.85;5.97;;;;;;;;;;4860542;29;20083;-80
2021/12/13 04:30:30;;;;;;;29.77;5.97;;;;;;;;;;4860187;29;20025;-80
2021/12/13 04:32:59;;;;;;;29.45;5.90;;;;;;;;;;4860396;29;20060;-80
2021/12/13 04:35:26;;;;;;;27.15;6.25;;;;;;;;;;4860354;29;20021;-80
2021/12/13 04:37:55;;;;;;;29.58;6.32;;;;;;;;;;4843064;29;20029;-81
2021/12/13 04:40:23;;;;;;;16.10;5.55;;;;;;;;;;4860400;29;20021;-80
2021/12/13 04:42:54;;;;;;;23.20;6.18;;;;;;;;;;4860687;29;20061;-80
2021/12/13 04:45:21;;;;;;;41.97;5.85;;;;;;;;;;4860866;29;20097;-80
2021/12/13 04:47:53;;;;;;;21.13;5.88;;;;;;;;;;4860291;29;20108;-80
2021/12/13 04:50:28;;;;;;;27.02;5.10;;;;;;;;;;4860064;29;20040;-80
2021/12/13 04:52:54;;;;;;;115.32;5.03;;;;;;;;;;4860263;29;20040;-80
2021/12/13 04:55:24;;;;;;;91.30;5.47;;;;;;;;;;4860571;29;20053;-80
2021/12/13 04:57:52;;;;;;;50.65;4.70;;;;;;;;;;4858253;29;20033;-81
2021/12/13 05:00:20;;;;;;;50.30;5.03;;;;;;;;;;4852779;29;20106;-80
2021/12/13 05:02:49;;;;;;;19.95;4.97;;;;;;;;;;4860274;29;20512;-80
2021/12/13 05:05:16;;;;;;;10.75;4.57;;;;;;;;;;4860370;29;20422;-80
2021/12/13 05:07:44;;;;;;;55.50;5.90;;;;;;;;;;4837368;29;20502;-80
2021/12/13 05:10:11;;;;;;;26.08;5.18;;;;;;;;;;4842022;29;20037;-79
2021/12/13 05:12:37;;;;;;;76.60;5.68;;;;;;;;;;4840638;29;20487;-80
2021/12/13 05:15:07;;;;;;;66.80;5.35;;;;;;;;;;4841719;29;20022;-79
2021/12/13 05:17:35;;;;;;;43.60;4.38;;;;;;;;;;4841729;29;20029;-81
2021/12/13 05:20:01;;;;;;;63.83;4.72;;;;;;;;;;4850921;29;20033;-81
2021/12/13 05:22:28;;;;;;;57.17;4.57;;;;;;;;;;4860179;29;20034;-81
2021/12/13 05:24:56;;;;;;;30.27;5.22;;;;;;;;;;4859089;29;20414;-80
2021/12/13 05:27:30;;;;;;;44.72;4.53;;;;;;;;;;4859563;29;20092;-81
2021/12/13 05:30:06;;;;;;;33.78;5.00;;;;;;;;;;4859892;29;20053;-79
2021/12/13 05:32:34;;;;;;;18.63;4.25;;;;;;;;;;4859201;29;20030;-79
2021/12/13 05:35:08;;;;;;;11.40;4.28;;;;;;;;;;4859703;29;20026;-79
2021/12/13 05:37:45;;;;;;;14.77;4.30;;;;;;;;;;4860273;29;20104;-79
2021/12/13 05:40:13;;;;;;;8.13;4.50;;;;;;;;;;4859852;29;20517;-80
2021/12/13 05:42:45;;;;;;;7.30;4.30;;;;;;;;;;4859501;29;20065;-79
2021/12/13 05:45:13;;;;;;;8.90;4.07;;;;;;;;;;4843449;29;20034;-79
2021/12/13 05:47:39;;;;;;;6.78;3.83;;;;;;;;;;4861123;29;20109;-83
2021/12/13 05:50:07;;;;;;;9.65;4.28;;;;;;;;;;4862512;29;20116;-81
2021/12/13 05:52:38;;;;;;;12.15;4.22;;;;;;;;;;4843773;29;20046;-81
2021/12/13 05:55:13;;;;;;;9.67;4.90;;;;;;;;;;4860815;29;20025;-79
2021/12/13 05:57:44;;;;;;;10.32;4.35;;;;;;;;;;4861140;29;20274;-79
2021/12/13 06:00:14;;;;;;;9.35;4.93;;;;;;;;;;4855209;29;20073;-80
2021/12/13 06:02:52;;;;;;;9.63;4.72;;;;;;;;;;4848729;29;20086;-82
2021/12/13 06:05:22;;;;;;;10.05;4.78;;;;;;;;;;4852753;29;20187;-80
2021/12/13 06:07:55;;;;;;;9.25;4.43;;;;;;;;;;4845482;29;20461;-82
2021/12/13 06:10:22;;;;;;;7.97;4.95;;;;;;;;;;4862733;29;20039;-79
2021/12/13 06:12:54;;;;;;;10.10;5.55;;;;;;;;;;4863394;29;20065;-79
2021/12/13 06:15:24;;;;;;;33.33;6.45;;;;;;;;;;4863220;29;20033;-80
2021/12/13 06:18:07;;;;;;;16.08;6.10;;;;;;;;;;4862904;29;20028;-79
2021/12/13 06:20:38;;;;;;;15.43;6.15;;;;;;;;;;4862819;29;20482;-79
2021/12/13 06:23:08;;;;;;;20.30;6.90;;;;;;;;;;4830436;29;20030;-80
2021/12/13 06:25:35;;;;;;;35.63;6.65;;;;;;;;;;4858740;29;20025;-80
2021/12/13 06:28:02;;;;;;;29.27;6.68;;;;;;;;;;4862473;29;20037;-80
2021/12/13 06:30:29;;;;;;;17.00;7.00;;;;;;;;;;4867036;29;20490;-81
2021/12/13 06:33:00;;;;;;;12.05;5.68;;;;;;;;;;4864202;29;20025;-81
2021/12/13 06:35:40;;;;;;;13.75;5.68;;;;;;;;;;4845998;29;20463;-81
2021/12/13 06:38:25;;;;;;;14.40;5.10;;;;;;;;;;4859361;29;20029;-81
2021/12/13 06:40:52;;;;;;;10.60;5.38;;;;;;;;;;4838123;29;20030;-81
2021/12/13 06:43:29;;;;;;;9.65;5.35;;;;;;;;;;4853970;29;20065;-81
2021/12/13 06:45:56;;;;;;;11.57;5.82;;;;;;;;;;4846453;29;20042;-81
2021/12/13 06:48:32;;;;;;;19.08;7.35;;;;;;;;;;4858573;29;20520;-81
2021/12/13 06:50:58;;;;;;;16.00;8.23;;;;;;;;;;4858566;29;20026;-81
2021/12/13 06:53:24;;;;;;;29.63;9.48;;;;;;;;;;4861744;29;20029;-81
2021/12/13 06:55:50;;;;;;;26.67;9.95;;;;;;;;;;4862475;29;20060;-80
2021/12/13 06:58:19;;;;;;;25.42;10.45;;;;;;;;;;4861300;29;20026;-81
2021/12/13 07:52:41;;;;;;;30.77;6.03;;;;;;;;;;5782674;23;20692;-79
2021/12/13 07:55:15;;;;;;;36.10;6.30;;;;;;;;;;4894603;29;20066;-79
2021/12/13 07:57:42;;;;;;;19.83;5.30;;;;;;;;;;4897822;29;20028;-79
2021/12/13 08:00:14;;;;;;;20.73;5.22;;;;;;;;;;4879802;29;20404;-79
2021/12/13 08:02:40;;;;;;;13.93;5.38;;;;;;;;;;4888291;29;20396;-80
2021/12/13 08:05:08;;;;;;;10.25;5.32;;;;;;;;;;4897554;29;20063;-79
2021/12/13 08:07:49;;;;;;;21.63;6.60;;;;;;;;;;4882394;29;20060;-79
2021/12/13 08:10:23;;;;;;;11.25;6.43;;;;;;;;;;4886044;29;20028;-79
2021/12/13 08:13:01;;;;;;;15.35;6.00;;;;;;;;;;4895791;29;20048;-79
2021/12/13 08:15:39;;;;;;;20.38;6.85;;;;;;;;;;4880213;29;20033;-80
2021/12/13 08:18:10;;;;;;;37.15;8.48;;;;;;;;;;4896187;29;20031;-79
2021/12/13 08:20:41;;;;;;;23.50;8.55;;;;;;;;;;4897023;29;20087;-80
2021/12/13 08:23:13;;;;;;;27.98;8.25;;;;;;;;;;4895515;29;20032;-79
2021/12/13 08:25:39;;;;;;;24.75;10.77;;;;;;;;;;4890885;29;20216;-80
2021/12/13 08:28:08;;;;;;;20.00;10.52;;;;;;;;;;4895744;29;20029;-80
2021/12/13 09:19:20;;;;;;;13.18;5.57;;;;;;;;;;5239318;23;20151;-78
2021/12/13 09:21:51;;;;;;;15.48;5.85;;;;;;;;;;4880255;29;20044;-78
2021/12/13 09:24:32;;;;;;;12.07;5.90;;;;;;;;;;4899493;29;20036;-78
2021/12/13 09:27:06;;;;;;;15.48;6.03;;;;;;;;;;4901060;29;20028;-78
2021/12/13 09:29:32;;;;;;;12.60;5.30;;;;;;;;;;4879657;29;20028;-78
2021/12/13 09:31:58;;;;;;;15.32;5.85;;;;;;;;;;4899872;29;20040;-78
2021/12/13 09:34:24;;;;;;;17.90;5.68;;;;;;;;;;4898054;29;20049;-78
2021/12/13 09:36:51;;;;;;;15.20;5.78;;;;;;;;;;4900532;29;20032;-78
2021/12/13 09:39:25;;;;;;;17.70;6.97;;;;;;;;;;4897967;29;20024;-78
2021/12/13 09:41:57;;;;;;;16.48;5.97;;;;;;;;;;4899338;29;20044;-80
2021/12/13 09:44:31;;;;;;;13.15;6.63;;;;;;;;;;4898183;29;20028;-81
2021/12/13 09:46:57;;;;;;;17.42;7.13;;;;;;;;;;4900375;29;20036;-79
2021/12/13 09:49:26;;;;;;;14.23;6.80;;;;;;;;;;4895906;29;20032;-79
2021/12/13 09:51:55;;;;;;;17.67;7.32;;;;;;;;;;4883958;29;20032;-78
2021/12/13 09:54:23;;;;;;;14.80;7.00;;;;;;;;;;4880798;29;20028;-81
2021/12/13 09:56:51;;;;;;;14.73;7.72;;;;;;;;;;4899445;29;20097;-80
2021/12/13 09:59:20;;;;;;;17.83;7.35;;;;;;;;;;4897816;29;20029;-79
2021/12/13 10:01:46;;;;;;;15.43;7.55;;;;;;;;;;4899366;29;20568;-80
2021/12/13 10:04:24;;;;;;;17.00;7.32;;;;;;;;;;4899822;29;20077;-81
2021/12/13 10:06:57;;;;;;;17.08;7.03;;;;;;;;;;4881916;29;20490;-81
2021/12/13 10:09:27;;;;;;;11.95;6.90;;;;;;;;;;4900033;29;20405;-82
2021/12/13 10:12:07;;;;;;;20.80;6.88;;;;;;;;;;4879588;29;20029;-82
2021/12/13 10:14:35;;;;;;;15.27;6.50;;;;;;;;;;4898367;29;20599;-81
2021/12/13 10:17:04;;;;;;;14.40;7.35;;;;;;;;;;4897113;29;20028;-81
2021/12/13 10:19:35;;;;;;;18.55;8.02;;;;;;;;;;4879343;29;20052;-83
2021/12/13 10:22:02;;;;;;;16.37;7.00;;;;;;;;;;4878838;29;20034;-78
2021/12/13 10:24:34;;;;;;;14.88;6.80;;;;;;;;;;4863816;29;20269;-78
2021/12/13 10:27:00;;;;;;;16.23;7.07;;;;;;;;;;4878246;29;20029;-82
2021/12/13 10:29:28;;;;;;;21.35;7.05;;;;;;;;;;4863739;29;20028;-80
2021/12/13 10:32:04;;;;;;;16.85;7.82;;;;;;;;;;4861604;29;20405;-83
2021/12/13 10:34:35;;;;;;;16.45;6.90;;;;;;;;;;4877234;29;20169;-83
2021/12/13 10:37:03;;;;;;;17.73;6.97;;;;;;;;;;4880058;29;20029;-83
2021/12/13 10:39:33;;;;;;;14.52;6.35;;;;;;;;;;4878558;29;20029;-84
2021/12/13 10:42:00;;;;;;;14.68;6.45;;;;;;;;;;4861600;29;20455;-83
2021/12/13 10:44:29;;;;;;;14.63;6.95;;;;;;;;;;4876001;29;20062;-83
2021/12/13 10:46:58;;;;;;;13.13;6.40;;;;;;;;;;4861966;29;20409;-83
2021/12/13 10:49:26;;;;;;;13.05;5.97;;;;;;;;;;4874080;29;20037;-83
2021/12/13 10:51:55;;;;;;;14.55;5.65;;;;;;;;;;4873577;29;20037;-84
2021/12/13 10:54:24;;;;;;;15.00;6.22;;;;;;;;;;4879737;29;20037;-83
2021/12/13 10:56:55;;;;;;;10.57;5.57;;;;;;;;;;4878470;29;20033;-83
2021/12/13 10:59:25;;;;;;;13.70;6.32;;;;;;;;;;4866536;29;20074;-83
2021/12/13 11:01:53;;;;;;;11.38;5.53;;;;;;;;;;4876896;29;20021;-83
2021/12/13 11:04:21;;;;;;;14.20;5.38;;;;;;;;;;4877887;29;20409;-83
2021/12/13 11:06:47;;;;;;;10.63;5.43;;;;;;;;;;4876475;29;20108;-84
2021/12/13 11:09:18;;;;;;;14.07;5.32;;;;;;;;;;4879699;29;20493;-83
2021/12/13 11:11:47;;;;;;;17.95;4.97;;;;;;;;;;4877057;29;20060;-83
2021/12/13 11:14:17;;;;;;;15.70;4.85;;;;;;;;;;4878680;29;20033;-83
2021/12/13 11:16:45;;;;;;;15.05;5.75;;;;;;;;;;4877548;29;20021;-83
2021/12/13 11:19:13;;;;;;;13.25;4.32;;;;;;;;;;4876121;29;20061;-83
2021/12/13 11:21:41;;;;;;;12.85;4.25;;;;;;;;;;4877346;29;20101;-83
2021/12/13 11:24:10;;;;;;;14.63;4.00;;;;;;;;;;4879452;29;20493;-83
2021/12/13 11:26:38;;;;;;;9.93;4.57;;;;;;;;;;4860271;29;20465;-81
2021/12/13 11:29:05;;;;;;;16.27;4.85;;;;;;;;;;4883051;29;20029;-80
2021/12/13 11:31:31;;;;;;;11.20;4.60;;;;;;;;;;4876245;29;20036;-80
2021/12/13 11:34:03;;;;;;;14.60;4.30;;;;;;;;;;4871676;29;20772;-86
2021/12/13 11:36:56;;;;;;;10.63;3.72;;;;;;;;;;4862847;29;20029;-82
2021/12/13 11:39:22;;;;;;;18.92;3.78;;;;;;;;;;4856484;29;20039;-83
2021/12/13 11:41:59;;;;;;;7.68;2.78;;;;;;;;;;4878460;29;20101;-83
2021/12/13 11:44:40;;;;;;;14.48;2.45;;;;;;;;;;4860055;29;20080;-84
2021/12/13 11:47:13;;;;;;;6.97;2.70;;;;;;;;;;4861850;29;20060;-83
2021/12/13 11:49:48;;;;;;;8.75;2.55;;;;;;;;;;4869888;29;20051;-83
2021/12/13 11:52:34;;;;;;;9.77;2.45;;;;;;;;;;4875785;29;20061;-83
2021/12/13 11:55:12;;;;;;;10.95;3.42;;;;;;;;;;4875058;29;20413;-84
2021/12/13 11:57:47;;;;;;;6.13;2.70;;;;;;;;;;4878501;29;20029;-83
2021/12/13 12:00:22;;;;;;;8.23;1.70;;;;;;;;;;4875242;29;20649;-85
2021/12/13 12:03:07;;;;;;;7.45;2.83;;;;;;;;;;4851586;29;20041;-82
2021/12/13 12:05:42;;;;;;;6.85;2.33;;;;;;;;;;4876138;29;20021;-84
2021/12/13 12:08:19;;;;;;;7.05;2.22;;;;;;;;;;4877847;29;20044;-84
2021/12/13 12:11:02;;;;;;;6.07;2.40;;;;;;;;;;4874417;29;20144;-84
2021/12/13 12:13:40;;;;;;;7.43;2.17;;;;;;;;;;4874969;29;20513;-84
2021/12/13 12:16:07;;;;;;;8.18;2.67;;;;;;;;;;4876065;29;20025;-84
2021/12/13 12:18:34;;;;;;;9.00;2.10;;;;;;;;;;4877227;29;20418;-84
2021/12/13 12:21:19;;;;;;;8.57;2.40;;;;;;;;;;4870157;29;20033;-84
2021/12/13 12:23:49;;;;;;;4.00;1.95;;;;;;;;;;4870835;29;20026;-86
2021/12/13 12:26:16;;;;;;;5.93;1.83;;;;;;;;;;4874103;29;20045;-84
2021/12/13 12:28:46;;;;;;;16.30;2.72;;;;;;;;;;4872971;29;20445;-84
2021/12/13 12:31:12;;;;;;;7.53;2.22;;;;;;;;;;4874089;29;20470;-83
2021/12/13 12:33:40;;;;;;;9.07;2.60;;;;;;;;;;4881210;29;20473;-84
2021/12/13 12:36:09;;;;;;;7.40;2.58;;;;;;;;;;4874824;29;20037;-83
2021/12/13 12:38:35;;;;;;;6.00;2.05;;;;;;;;;;4876769;29;20077;-84
2021/12/13 12:41:07;;;;;;;9.07;2.20;;;;;;;;;;4877132;29;20040;-84
2021/12/13 12:43:40;;;;;;;6.40;2.38;;;;;;;;;;4862753;29;20394;-84
2021/12/13 12:46:12;;;;;;;8.38;2.63;;;;;;;;;;4859386;29;20084;-84
2021/12/13 12:48:40;;;;;;;10.35;2.75;;;;;;;;;;4868381;29;20028;-84
2021/12/13 12:51:06;;;;;;;5.38;2.40;;;;;;;;;;4869343;29;20033;-84
2021/12/13 12:53:32;;;;;;;5.35;1.92;;;;;;;;;;4864549;29;20037;-83
2021/12/13 12:55:59;;;;;;;5.78;2.30;;;;;;;;;;4858260;29;20486;-83
2021/12/13 12:58:32;;;;;;;6.57;2.20;;;;;;;;;;4871181;29;20021;-83
2021/12/13 13:01:05;;;;;;;9.15;2.08;;;;;;;;;;4846303;29;20547;-83
2021/12/13 13:03:33;;;;;;;9.63;3.13;;;;;;;;;;4864051;29;20045;-83
2021/12/13 13:06:05;;;;;;;6.15;2.13;;;;;;;;;;4861355;29;20487;-83
2021/12/13 13:08:32;;;;;;;7.20;1.75;;;;;;;;;;4858333;29;20056;-83
2021/12/13 13:13:45;;;;;;;7.88;1.98;;;;;;;;;;4874049;29;20083;-83
2021/12/13 13:16:11;;;;;;;5.40;1.73;;;;;;;;;;4877863;29;20021;-83
2021/12/13 13:18:39;;;;;;;3.97;1.50;;;;;;;;;;4877160;29;20547;-84
2021/12/13 13:21:06;;;;;;;7.15;2.25;;;;;;;;;;4875785;29;20481;-84
2021/12/13 13:23:41;;;;;;;6.53;1.85;;;;;;;;;;4861252;29;20429;-82
2021/12/13 13:26:07;;;;;;;11.23;2.40;;;;;;;;;;4876032;29;20033;-82
2021/12/13 13:28:33;;;;;;;4.25;1.60;;;;;;;;;;4861466;29;20033;-83
2021/12/13 13:31:05;;;;;;;6.72;1.52;;;;;;;;;;4875878;29;20025;-82
2021/12/13 13:33:37;;;;;;;4.03;1.50;;;;;;;;;;4876984;29;20445;-83
2021/12/13 13:36:05;;;;;;;6.32;1.95;;;;;;;;;;4875023;29;20501;-83
2021/12/13 13:38:31;;;;;;;7.35;2.00;;;;;;;;;;4859071;29;20468;-82
2021/12/13 13:40:57;;;;;;;7.13;1.80;;;;;;;;;;4875218;29;20021;-82
2021/12/13 13:43:25;;;;;;;7.32;1.95;;;;;;;;;;4860527;29;20056;-82
2021/12/13 13:45:53;;;;;;;7.13;2.00;;;;;;;;;;4858794;29;20424;-82
2021/12/13 13:48:38;;;;;;;6.00;1.60;;;;;;;;;;4860754;29;20037;-82
2021/12/13 13:51:06;;;;;;;3.53;1.55;;;;;;;;;;4873137;29;20033;-82
2021/12/13 13:53:39;;;;;;;4.97;1.67;;;;;;;;;;4874577;29;20037;-82
2021/12/13 13:56:12;;;;;;;8.32;2.53;;;;;;;;;;4874859;29;20420;-82
2021/12/13 13:58:41;;;;;;;8.07;1.90;;;;;;;;;;4861054;29;20029;-82
2021/12/13 14:01:30;;;;;;;6.95;1.85;;;;;;;;;;4875629;29;20029;-82
2021/12/13 14:03:58;;;;;;;8.85;1.90;;;;;;;;;;4865527;29;20121;-82
2021/12/13 14:06:33;;;;;;;5.15;1.60;;;;;;;;;;4875935;29;20033;-82
2021/12/13 14:09:03;;;;;;;5.43;1.48;;;;;;;;;;4879272;29;20089;-82
2021/12/13 14:11:29;;;;;;;7.65;1.90;;;;;;;;;;4863749;29;20033;-82
2021/12/13 14:13:58;;;;;;;4.88;1.40;;;;;;;;;;4861063;29;20084;-81
2021/12/13 14:16:25;;;;;;;24.10;2.40;;;;;;;;;;4880163;29;20030;-82
2021/12/13 14:18:52;;;;;;;5.80;2.00;;;;;;;;;;4864914;29;20060;-82
2021/12/13 14:21:23;;;;;;;5.40;1.80;;;;;;;;;;4880346;29;20037;-82
2021/12/13 14:23:50;;;;;;;6.97;1.73;;;;;;;;;;4875055;29;20477;-85
2021/12/13 14:26:18;;;;;;;5.75;1.98;;;;;;;;;;4867761;29;20035;-82
2021/12/13 14:28:55;;;;;;;6.75;2.20;;;;;;;;;;4868632;29;20033;-82
2021/12/13 14:31:25;;;;;;;6.47;2.10;;;;;;;;;;4877113;29;20025;-76
2021/12/13 14:33:55;;;;;;;7.07;1.75;;;;;;;;;;4877210;29;20041;-82
2021/12/13 14:36:23;;;;;;;5.85;1.85;;;;;;;;;;4863552;29;20029;-84
2021/12/13 14:39:07;;;;;;;12.95;2.15;;;;;;;;;;4878114;29;20086;-82
2021/12/13 14:41:35;;;;;;;7.60;2.22;;;;;;;;;;4879904;29;20375;-83
2021/12/13 14:44:03;;;;;;;7.35;1.83;;;;;;;;;;4877368;29;20117;-83
2021/12/13 14:46:32;;;;;;;5.18;1.83;;;;;;;;;;4878124;29;20025;-83
2021/12/13 14:49:08;;;;;;;6.38;1.98;;;;;;;;;;4863126;29;20092;-83
2021/12/13 14:51:36;;;;;;;18.40;9.52;;;;;;;;;;4863312;29;20395;-82
2021/12/13 14:54:02;;;;;;;5.65;2.60;;;;;;;;;;4877166;29;20033;-83
2021/12/13 14:56:28;;;;;;;6.03;2.00;;;;;;;;;;4869384;29;20021;-83
2021/12/13 14:58:56;;;;;;;6.85;1.90;;;;;;;;;;4877674;29;20025;-82
2021/12/13 15:01:24;;;;;;;9.43;2.33;;;;;;;;;;4862560;29;20120;-83
2021/12/13 15:03:58;;;;;;;13.00;2.38;;;;;;;;;;4875063;29;20474;-83
2021/12/13 15:06:25;;;;;;;7.82;2.10;;;;;;;;;;4878894;29;20021;-83
2021/12/13 15:08:56;;;;;;;4.78;1.70;;;;;;;;;;4876748;29;20077;-83
2021/12/13 15:11:22;;;;;;;7.28;1.73;;;;;;;;;;4879482;29;20112;-83
2021/12/13 15:13:51;;;;;;;11.13;2.63;;;;;;;;;;4876857;29;20037;-83
2021/12/13 15:16:18;;;;;;;8.95;2.33;;;;;;;;;;4878050;29;20430;-83
2021/12/13 15:18:45;;;;;;;6.95;1.90;;;;;;;;;;4878494;29;20053;-81
2021/12/13 15:21:15;;;;;;;6.05;2.22;;;;;;;;;;4878555;29;20243;-80
2021/12/13 15:23:42;;;;;;;5.93;2.22;;;;;;;;;;4880330;29;20033;-83
2021/12/13 15:26:14;;;;;;;6.20;2.38;;;;;;;;;;4863806;29;20119;-77
2021/12/13 15:28:40;;;;;;;;;;;;;;;;;;4874492;29;20029;-83
2021/12/13 15:31:10;;;;;;;5.97;1.80;;;;;;;;;;4877325;29;19919;-84
2021/12/13 15:33:38;;;;;;;5.60;2.08;;;;;;;;;;4866533;29;20475;-84
2021/12/13 15:36:04;;;;;;;11.45;2.38;;;;;;;;;;4876372;29;20041;-81
2021/12/13 15:38:30;;;;;;;8.65;1.92;;;;;;;;;;4862995;29;20025;-82
2021/12/13 15:40:58;;;;;;;6.20;1.92;;;;;;;;;;4876738;29;20037;-83
2021/12/13 15:43:25;;;;;;;7.95;2.70;;;;;;;;;;4879335;29;20025;-83
2021/12/13 15:45:57;;;;;;;7.28;2.03;;;;;;;;;;4858410;29;20041;-83
2021/12/13 15:51:11;;;;;;;20.67;2.88;;;;;;;;;;4873218;29;19955;-83
2021/12/13 15:53:39;;;;;;;17.42;2.28;;;;;;;;;;4862312;29;20655;-83
2021/12/13 15:56:07;;;;;;;10.02;2.15;;;;;;;;;;4882605;29;20061;-81
2021/12/13 15:58:35;;;;;;;10.20;2.55;;;;;;;;;;4870818;29;20405;-83
2021/12/13 16:01:22;;;;;;;13.07;2.88;;;;;;;;;;4861550;29;20104;-84
2021/12/13 16:03:50;;;;;;;9.10;2.90;;;;;;;;;;4875233;29;20033;-83
2021/12/13 16:06:17;;;;;;;7.28;2.42;;;;;;;;;;4854312;29;20033;-83
2021/12/13 16:08:43;;;;;;;12.00;3.50;;;;;;;;;;4876005;29;20033;-81
2021/12/13 16:11:17;;;;;;;6.85;2.83;;;;;;;;;;4879021;29;20040;-87
2021/12/13 16:13:43;;;;;;;8.45;2.33;;;;;;;;;;4876123;29;20037;-83
2021/12/13 16:16:24;;;;;;;6.75;2.40;;;;;;;;;;4867368;29;20485;-83
2021/12/13 16:18:52;;;;;;;14.57;3.00;;;;;;;;;;4870156;29;20056;-83
2021/12/13 16:21:38;;;;;;;9.40;2.80;;;;;;;;;;4862470;29;20021;-83
2021/12/13 16:24:06;;;;;;;9.38;3.05;;;;;;;;;;4855793;29;20470;-79
2021/12/13 16:26:35;;;;;;;7.28;3.13;;;;;;;;;;4878724;29;20493;-83
2021/12/13 16:29:01;;;;;;;8.98;3.28;;;;;;;;;;4876853;29;20033;-83
2021/12/13 16:31:27;;;;;;;11.70;3.38;;;;;;;;;;4877764;29;20024;-83
2021/12/13 16:34:11;;;;;;;11.32;3.25;;;;;;;;;;4859004;29;20029;-82
2021/12/13 16:36:44;;;;;;;9.82;3.75;;;;;;;;;;4868914;29;20066;-82
2021/12/13 16:39:11;;;;;;;9.10;3.42;;;;;;;;;;4862044;29;20029;-82
2021/12/13 16:41:38;;;;;;;8.68;3.28;;;;;;;;;;4861566;29;20029;-83
2021/12/13 16:44:06;;;;;;;9.13;3.67;;;;;;;;;;4877520;29;20497;-82
2021/12/13 16:46:33;;;;;;;9.52;3.70;;;;;;;;;;4869686;29;20064;-82
2021/12/13 16:49:00;;;;;;;12.05;4.00;;;;;;;;;;4862994;29;20055;-83